Time;durP1;ratioP1;P1;durP2;ratioP2;P2;SDS_P1;SDS_P2;PMS_P1;PMS_P2;Temp;Humidity;BMP_temperature;BMP_pressure;BME280_temperature;BME280_humidity;BME280_pressure;Samples;Min_cycle;Max_cycle;Signal;HPM_P1;HPM_P2
2021/12/24 00:01:06;;;;;;;24.70;17.52;;;;;;;6.05;100.00;100394.94;4993243;28;20112;-49
2021/12/24 00:03:34;;;;;;;27.35;18.38;;;;;;;6.05;100.00;100394.16;4995641;28;20043;-49
2021/12/24 00:06:04;;;;;;;25.40;17.88;;;;;;;6.05;100.00;100400.38;5012363;28;20124;-51
2021/12/24 00:08:32;;;;;;;25.63;17.23;;;;;;;6.08;100.00;100393.63;4999731;28;20050;-48
2021/12/24 00:11:01;;;;;;;25.77;18.20;;;;;;;6.10;100.00;100392.31;4993106;28;20112;-48
2021/12/24 00:13:38;;;;;;;21.38;16.05;;;;;;;6.14;100.00;100398.06;4992657;28;20049;-51
2021/12/24 00:35:11;;;;;;;22.13;14.93;;;;;;;6.25;100.00;100378.19;4995494;28;20053;-49
2021/12/24 00:37:41;;;;;;;21.63;15.57;;;;;;;6.24;100.00;100376.56;5012144;28;20042;-45
2021/12/24 00:40:16;;;;;;;19.38;14.43;;;;;;;6.25;100.00;100378.19;5016046;28;20050;-45
2021/12/24 00:42:45;;;;;;;17.27;13.38;;;;;;;6.26;100.00;100374.44;5015538;28;20055;-49
2021/12/24 00:45:15;;;;;;;16.70;12.93;;;;;;;6.29;100.00;100373.91;5030737;28;20044;-48
2021/12/24 00:47:43;;;;;;;19.00;14.23;;;;;;;6.31;100.00;100370.97;5006313;28;20481;-49
2021/12/24 00:50:15;;;;;;;17.33;13.45;;;;;;;6.30;100.00;100375.56;4978945;28;20524;-48
2021/12/24 00:52:49;;;;;;;15.40;11.75;;;;;;;6.33;100.00;100379.66;4995235;28;20408;-47
2021/12/24 00:55:21;;;;;;;15.15;11.80;;;;;;;6.35;100.00;100361.25;5010344;28;20049;-48
2021/12/24 00:57:51;;;;;;;14.45;11.07;;;;;;;6.35;100.00;100351.28;5015395;28;20184;-49
2021/12/24 01:00:23;;;;;;;15.32;11.43;;;;;;;6.36;100.00;100358.31;5030690;28;20046;-47
2021/12/24 01:02:52;;;;;;;14.80;12.05;;;;;;;6.37;100.00;100359.13;5012291;28;20125;-46
2021/12/24 01:05:21;;;;;;;14.40;11.25;;;;;;;6.40;100.00;100353.22;5030391;28;20132;-48
2021/12/24 01:07:49;;;;;;;14.98;11.40;;;;;;;6.43;100.00;100357.31;5003457;28;20481;-46
2021/12/24 01:10:23;;;;;;;17.73;12.75;;;;;;;6.42;100.00;100350.25;4978311;28;20464;-46
2021/12/24 01:12:51;;;;;;;14.52;11.40;;;;;;;6.43;100.00;100351.91;4994316;28;20038;-46
2021/12/24 01:15:19;;;;;;;16.40;12.38;;;;;;;6.44;100.00;100354.34;5012106;28;20041;-48
2021/12/24 01:20:41;;;;;;;16.20;12.63;;;;;;;6.50;100.00;100347.94;5014204;28;20117;-49
2021/12/24 01:25:48;;;;;;;15.25;12.90;;;;;;;6.52;100.00;100347.69;5012992;28;20104;-47
2021/12/24 01:28:38;;;;;;;16.42;13.18;;;;;;;6.54;100.00;100349.06;5030174;28;20133;-46
2021/12/24 01:39:53;;;;;;;15.52;12.60;;;;;;;6.59;100.00;100342.88;4977941;28;20038;-49
2021/12/24 01:42:42;;;;;;;13.90;11.82;;;;;;;6.60;100.00;100347.25;4994300;28;20062;-50
2021/12/24 01:45:26;;;;;;;16.90;13.63;;;;;;;6.60;100.00;100347.25;5003804;28;20047;-47
2021/12/24 01:47:57;;;;;;;13.25;9.88;;;;;;;6.61;100.00;100348.84;4994055;28;20048;-49
2021/12/24 01:50:29;;;;;;;16.15;12.48;;;;;;;6.63;100.00;100349.44;5010065;28;20071;-50
2021/12/24 01:52:57;;;;;;;15.43;12.27;;;;;;;6.62;100.00;100350.50;5008295;28;20125;-45
2021/12/24 01:55:28;;;;;;;16.70;13.20;;;;;;;6.66;100.00;100357.03;5009847;28;20054;-49
2021/12/24 01:57:56;;;;;;;15.32;13.13;;;;;;;6.69;100.00;100343.00;4994673;28;20068;-49
2021/12/24 02:00:28;;;;;;;17.13;13.52;;;;;;;6.70;100.00;100347.34;4994098;28;20137;-50
2021/12/24 02:02:56;;;;;;;19.48;14.30;;;;;;;6.71;100.00;100354.41;4993731;28;20596;-50
2021/12/24 02:05:25;;;;;;;20.42;16.05;;;;;;;6.73;100.00;100344.13;5008961;28;20104;-49
2021/12/24 02:07:52;;;;;;;18.73;15.70;;;;;;;6.77;100.00;100347.16;5016821;28;20554;-45
2021/12/24 02:10:21;;;;;;;19.63;16.38;;;;;;;6.75;100.00;100344.69;5010059;28;20047;-48
2021/12/24 02:12:49;;;;;;;21.60;16.38;;;;;;;6.77;100.00;100339.84;5009596;28;20058;-48
2021/12/24 02:29:08;;;;;;;24.27;18.00;;;;;;;6.91;100.00;100342.97;5015103;28;20126;-53
2021/12/24 02:31:37;;;;;;;23.27;19.50;;;;;;;6.93;100.00;100345.44;5031471;28;20132;-50
2021/12/24 02:34:04;;;;;;;22.55;17.67;;;;;;;6.97;100.00;100335.69;5007054;28;20134;-50
2021/12/24 02:36:33;;;;;;;22.65;17.85;;;;;;;6.98;100.00;100337.34;5020748;28;20136;-48
2021/12/24 02:39:01;;;;;;;20.13;16.30;;;;;;;7.02;100.00;100338.47;5029729;28;20060;-49
2021/12/24 02:41:28;;;;;;;23.98;16.88;;;;;;;7.03;100.00;100340.09;5030837;28;20054;-49
2021/12/24 02:43:56;;;;;;;24.85;18.45;;;;;;;7.06;100.00;100333.34;5031568;28;20181;-50
2021/12/24 02:46:41;;;;;;;22.40;16.58;;;;;;;7.10;100.00;100334.50;5011726;28;20136;-50
2021/12/24 02:54:40;;;;;;;20.92;16.63;;;;;;;7.17;100.00;100329.69;4976004;28;20158;-49
2021/12/24 02:57:10;;;;;;;20.75;16.50;;;;;;;7.17;100.00;100326.97;4937720;29;20054;-50
2021/12/24 02:59:47;;;;;;;21.48;16.35;;;;;;;7.15;100.00;100319.09;4936894;29;20043;-50
2021/12/24 03:02:15;;;;;;;20.42;15.52;;;;;;;7.22;100.00;100322.41;4952983;29;20078;-50
2021/12/24 03:04:42;;;;;;;24.17;16.92;;;;;;;7.23;100.00;100318.59;4952585;29;20070;-46
2021/12/24 03:07:10;;;;;;;24.17;17.23;;;;;;;7.25;100.00;100310.22;4945159;29;20051;-44
2021/12/24 03:09:38;;;;;;;23.70;16.08;;;;;;;7.29;100.00;100318.63;4917837;29;20135;-48
2021/12/24 03:12:06;;;;;;;24.95;16.27;;;;;;;7.31;100.00;100316.50;4933616;29;20191;-49
2021/12/24 03:14:34;;;;;;;23.30;14.85;;;;;;;7.39;100.00;100322.25;4933661;29;20048;-48
2021/12/24 03:17:07;;;;;;;25.63;16.52;;;;;;;7.41;100.00;100319.31;4934485;29;20040;-49
2021/12/24 03:19:35;;;;;;;19.98;13.98;;;;;;;7.42;100.00;100320.94;4933688;29;20422;-48
2021/12/24 03:24:36;;;;;;;25.27;15.55;;;;;;;7.41;100.00;100312.00;4917402;29;20126;-48
2021/12/24 03:27:06;;;;;;;27.33;16.92;;;;;;;7.45;100.00;100323.13;4933904;29;20502;-47
2021/12/24 03:29:34;;;;;;;25.02;15.63;;;;;;;7.46;100.00;100325.56;4944966;28;20050;-47
2021/12/24 03:32:03;;;;;;;25.70;15.90;;;;;;;7.49;100.00;100331.56;5009265;28;20048;-48
2021/12/24 03:34:32;;;;;;;25.15;15.45;;;;;;;7.51;100.00;100324.00;5011490;28;20042;-47
2021/12/24 03:37:01;;;;;;;24.52;14.55;;;;;;;7.51;100.00;100330.22;5023350;28;20050;-49
2021/12/24 03:39:31;;;;;;;27.02;15.45;;;;;;;7.52;100.00;100331.03;5003582;28;20232;-47
2021/12/24 03:41:59;;;;;;;26.30;15.18;;;;;;;7.52;100.00;100337.25;4993390;28;20046;-50
2021/12/24 03:44:53;;;;;;;23.75;14.73;;;;;;;7.56;100.00;100338.38;4992163;28;20043;-50
2021/12/24 03:47:20;;;;;;;25.98;15.00;;;;;;;7.61;100.00;100340.31;4993058;28;20058;-48
2021/12/24 03:50:06;;;;;;;24.05;13.05;;;;;;;7.63;100.00;100338.97;5001316;28;20465;-47
2021/12/24 03:53:03;;;;;;;26.33;14.75;;;;;;;7.61;100.00;100338.41;5008540;28;20559;-48
2021/12/24 03:55:31;;;;;;;22.80;13.48;;;;;;;7.61;100.00;100329.47;5008124;28;20121;-50
2021/12/24 03:57:59;;;;;;;22.80;13.10;;;;;;;7.60;100.00;100339.50;5008318;28;20051;-48
2021/12/24 04:00:45;;;;;;;;;;;;;;;7.62;100.00;100340.03;4994489;28;20043;-48
2021/12/24 04:03:19;;;;;;;19.10;11.50;;;;;;;7.62;100.00;100334.63;4992936;28;20336;-50
2021/12/24 04:06:05;;;;;;;23.92;11.88;;;;;;;7.65;100.00;100336.03;4992868;28;20054;-51
2021/12/24 04:08:33;;;;;;;23.70;12.68;;;;;;;7.65;100.00;100331.41;5010097;28;20056;-49
2021/12/24 04:11:16;;;;;;;21.55;11.82;;;;;;;7.67;100.00;100337.38;5015769;28;20497;-47
2021/12/24 04:13:45;;;;;;;22.42;12.23;;;;;;;7.68;100.00;100332.78;5012018;28;20077;-49
2021/12/24 04:16:14;;;;;;;19.35;10.15;;;;;;;7.73;100.00;100334.72;4996136;28;20109;-47
2021/12/24 04:27:02;;;;;;;;;;;;;;;7.69;100.00;100327.06;4999460;28;20121;-48
2021/12/24 04:29:30;;;;;;;18.23;9.20;;;;;;;7.71;100.00;100347.72;4995689;28;20335;-51
2021/12/24 04:32:10;;;;;;;17.42;9.18;;;;;;;7.69;100.00;100342.53;4996624;28;20053;-51
2021/12/24 04:35:14;;;;;;;18.73;8.40;;;;;;;7.69;100.00;100348.78;4996105;28;20073;-48
2021/12/24 04:38:09;;;;;;;18.73;9.02;;;;;;;7.69;100.00;100343.34;5021586;28;20042;-50
2021/12/24 04:51:28;;;;;;;18.08;7.63;;;;;;;7.77;100.00;100330.38;5008250;28;20561;-49
2021/12/24 05:05:02;;;;;;;21.00;7.10;;;;;;;7.79;100.00;100320.94;5014254;28;20140;-50
2021/12/24 05:07:56;;;;;;;18.70;6.93;;;;;;;7.80;100.00;100319.03;5010815;28;20464;-51
2021/12/24 05:10:29;;;;;;;16.48;7.10;;;;;;;7.79;100.00;100326.34;4994803;28;20085;-51
2021/12/24 05:12:57;;;;;;;19.70;6.72;;;;;;;7.82;100.00;100319.59;4994896;28;20516;-48
2021/12/24 05:15:39;;;;;;;17.50;7.18;;;;;;;7.82;100.00;100322.31;5010954;28;20054;-52
2021/12/24 05:18:46;;;;;;;16.02;6.68;;;;;;;7.82;100.00;100328.53;4995962;28;20050;-47
2021/12/24 05:21:36;;;;;;;17.52;7.00;;;;;;;7.83;100.00;100329.34;4977842;28;20453;-49
2021/12/24 05:24:07;;;;;;;22.23;7.13;;;;;;;7.87;100.00;100328.56;4993362;28;20062;-49
2021/12/24 05:26:35;;;;;;;22.83;7.75;;;;;;;7.85;100.00;100335.34;5009812;28;20078;-51
2021/12/24 05:29:04;;;;;;;18.45;7.32;;;;;;;7.83;100.00;100335.59;4977101;28;20081;-52
2021/12/24 05:31:33;;;;;;;17.52;6.93;;;;;;;7.84;100.00;100344.53;4977049;28;20201;-50
2021/12/24 05:34:01;;;;;;;18.88;6.68;;;;;;;7.84;100.00;100339.94;4976363;28;20140;-49
2021/12/24 05:36:28;;;;;;;22.05;7.18;;;;;;;7.82;100.00;100346.72;4993060;28;20043;-48
2021/12/24 05:38:56;;;;;;;19.33;6.85;;;;;;;7.80;100.00;100341.53;4976909;28;20053;-49
2021/12/24 05:41:25;;;;;;;17.27;7.20;;;;;;;7.80;100.00;100344.25;4976988;28;20054;-46
2021/12/24 05:43:53;;;;;;;18.10;7.43;;;;;;;7.79;100.00;100345.34;4992058;28;20480;-47
2021/12/24 05:46:26;;;;;;;17.27;6.60;;;;;;;7.79;100.00;100348.06;4987026;28;20148;-48
2021/12/24 05:49:04;;;;;;;20.25;6.30;;;;;;;7.78;100.00;100351.81;4992748;28;20041;-48
2021/12/24 05:51:33;;;;;;;21.42;6.97;;;;;;;7.82;100.00;100357.56;4992876;28;20058;-50
2021/12/24 05:54:19;;;;;;;17.70;6.88;;;;;;;7.81;100.00;100350.47;4991995;28;20253;-52
2021/12/24 05:56:47;;;;;;;19.40;6.78;;;;;;;7.79;100.00;100360.78;4992593;28;20046;-46
2021/12/24 05:59:19;;;;;;;23.08;7.25;;;;;;;7.85;100.00;100365.16;5002918;28;20058;-46
2021/12/24 06:01:47;;;;;;;18.70;6.07;;;;;;;7.84;100.00;100368.94;5013348;28;20060;-46
2021/12/24 06:04:15;;;;;;;18.95;6.50;;;;;;;7.84;100.00;100371.66;4997166;28;20039;-46
2021/12/24 06:06:43;;;;;;;20.70;6.85;;;;;;;7.82;100.00;100369.22;5004483;28;20492;-46
2021/12/24 06:09:10;;;;;;;22.02;6.80;;;;;;;7.82;100.00;100368.41;5014408;28;20050;-46
2021/12/24 06:11:38;;;;;;;20.38;6.47;;;;;;;7.80;100.00;100363.22;5014399;28;20073;-50
2021/12/24 06:14:11;;;;;;;22.92;7.03;;;;;;;7.82;100.00;100369.22;5007152;28;20048;-50
2021/12/24 06:16:48;;;;;;;21.05;5.85;;;;;;;7.82;100.00;100368.41;5014342;28;20046;-47
2021/12/24 06:19:17;;;;;;;19.85;6.82;;;;;;;7.82;100.00;100373.84;5013535;28;20393;-45
2021/12/24 06:21:45;;;;;;;18.08;6.53;;;;;;;7.83;100.00;100364.59;4996715;28;20042;-48
2021/12/24 06:24:13;;;;;;;19.15;6.70;;;;;;;7.81;100.00;100367.56;4995177;28;20046;-49
2021/12/24 06:26:40;;;;;;;24.58;7.07;;;;;;;7.83;100.00;100370.03;4993892;28;20083;-49
2021/12/24 06:29:08;;;;;;;21.55;6.97;;;;;;;7.83;100.00;100370.03;4995926;28;20050;-50
2021/12/24 06:31:36;;;;;;;20.23;6.65;;;;;;;7.83;100.00;100370.03;4993848;28;20042;-46
2021/12/24 06:34:04;;;;;;;21.50;6.32;;;;;;;7.83;100.00;100370.03;5008479;28;20049;-48
2021/12/24 06:36:36;;;;;;;16.97;5.17;;;;;;;7.85;100.00;100376.00;4313705;28;10000621;-50
2021/12/24 06:39:05;;;;;;;18.38;6.10;;;;;;;7.84;100.00;100371.66;4992635;28;20649;-50
2021/12/24 06:41:33;;;;;;;21.35;6.53;;;;;;;7.85;100.00;100370.59;4992704;28;20058;-48
2021/12/24 06:44:01;;;;;;;20.17;5.88;;;;;;;7.88;100.00;100365.44;4993528;28;20047;-52
2021/12/24 06:46:29;;;;;;;21.38;6.60;;;;;;;7.89;100.00;100366.28;4992263;28;20051;-50
2021/12/24 06:48:56;;;;;;;19.60;5.93;;;;;;;7.86;100.00;100364.91;4992152;28;20045;-49
2021/12/24 06:51:24;;;;;;;23.73;6.07;;;;;;;7.84;100.00;100369.78;4992330;28;20051;-54
2021/12/24 06:53:52;;;;;;;21.77;5.90;;;;;;;7.87;100.00;100373.88;5004798;28;20049;-50
2021/12/24 06:56:21;;;;;;;20.23;6.25;;;;;;;7.86;100.00;100372.22;5010664;28;20126;-52
2021/12/24 06:58:50;;;;;;;17.95;5.70;;;;;;;7.85;100.00;100357.03;5010530;28;20077;-50
2021/12/24 07:01:18;;;;;;;22.98;6.40;;;;;;;7.81;100.00;100364.03;5010340;28;20133;-50
2021/12/24 07:03:47;;;;;;;16.98;6.25;;;;;;;7.78;100.00;100361.88;5009848;28;20054;-48
2021/12/24 07:06:15;;;;;;;20.02;5.70;;;;;;;7.76;100.00;100364.00;5004131;28;20058;-51
2021/12/24 07:08:43;;;;;;;22.10;6.53;;;;;;;7.75;100.00;100363.19;4991714;28;20456;-49
2021/12/24 07:11:11;;;;;;;16.67;6.53;;;;;;;7.76;100.00;100374.84;4990538;28;20050;-48
2021/12/24 07:13:38;;;;;;;22.65;6.85;;;;;;;7.75;100.00;100356.97;4992174;28;20053;-51
2021/12/24 07:16:06;;;;;;;24.77;6.97;;;;;;;7.75;100.00;100359.69;5015144;28;20053;-50
2021/12/24 07:18:33;;;;;;;17.95;6.20;;;;;;;7.75;100.00;100374.06;5011224;28;20409;-48
2021/12/24 07:21:01;;;;;;;22.08;6.95;;;;;;;7.75;100.00;100368.63;5011588;28;20052;-46
2021/12/24 07:23:29;;;;;;;19.67;6.80;;;;;;;7.74;100.00;100364.25;5011441;28;20045;-47
2021/12/24 07:25:56;;;;;;;21.23;6.80;;;;;;;7.75;100.00;100367.81;4997617;28;20405;-47
2021/12/24 07:28:24;;;;;;;18.60;6.30;;;;;;;7.75;100.00;100368.63;4991495;28;20456;-49
2021/12/24 07:30:52;;;;;;;20.60;5.90;;;;;;;7.75;100.00;100373.25;4991651;28;20073;-49
2021/12/24 07:33:20;;;;;;;22.15;6.90;;;;;;;7.76;100.00;100380.28;4993897;28;20042;-48
2021/12/24 07:35:47;;;;;;;18.67;6.32;;;;;;;7.77;100.00;100379.19;4992538;28;20038;-50
2021/12/24 07:38:15;;;;;;;22.98;7.50;;;;;;;7.77;100.00;100379.19;4990804;28;20050;-47
2021/12/24 07:40:46;;;;;;;25.88;6.93;;;;;;;7.76;100.00;100374.84;4993457;28;20042;-49
2021/12/24 07:43:14;;;;;;;19.88;6.45;;;;;;;7.78;100.00;100376.22;4993310;28;20420;-52
2021/12/24 07:45:43;;;;;;;22.40;6.63;;;;;;;7.80;100.00;100375.97;5002767;28;20049;-47
2021/12/24 07:48:15;;;;;;;19.38;6.88;;;;;;;7.80;100.00;100362.41;4993250;28;20401;-48
2021/12/24 07:53:15;;;;;;;19.35;6.75;;;;;;;7.77;100.00;100374.59;4993079;28;20520;-47
2021/12/24 07:55:43;;;;;;;20.58;6.85;;;;;;;7.79;100.00;100377.88;5000026;28;20080;-48
2021/12/24 07:58:13;;;;;;;20.42;6.28;;;;;;;7.79;100.00;100383.31;5012552;28;20049;-49
2021/12/24 08:00:42;;;;;;;20.27;6.68;;;;;;;7.78;100.00;100384.38;5012692;28;20068;-46
2021/12/24 08:03:10;;;;;;;21.17;6.97;;;;;;;7.79;100.00;100390.59;5012689;28;20084;-49
2021/12/24 08:05:40;;;;;;;19.02;5.95;;;;;;;7.80;100.00;100387.63;5011051;28;20073;-48
2021/12/24 08:08:11;;;;;;;23.83;7.05;;;;;;;7.80;100.00;100389.53;5012582;28;20042;-49
2021/12/24 08:10:41;;;;;;;21.15;6.53;;;;;;;7.81;100.00;100385.75;5012498;28;20045;-50
2021/12/24 08:13:09;;;;;;;21.40;6.90;;;;;;;7.81;100.00;100378.41;5012426;28;20054;-50
2021/12/24 08:15:37;;;;;;;19.63;6.47;;;;;;;7.80;100.00;100370.56;5012627;28;20158;-49
2021/12/24 08:18:09;;;;;;;18.67;6.35;;;;;;;7.80;100.00;100370.56;5009577;28;20439;-49
2021/12/24 08:20:37;;;;;;;21.90;6.80;;;;;;;7.82;100.00;100365.69;5012625;28;20053;-49
2021/12/24 08:23:04;;;;;;;20.33;6.28;;;;;;;7.83;100.00;100370.03;5012633;28;20050;-48
2021/12/24 08:25:32;;;;;;;20.55;6.53;;;;;;;7.84;100.00;100366.22;5012197;28;20041;-48
2021/12/24 08:28:01;;;;;;;18.65;6.97;;;;;;;7.85;100.00;100373.31;5010652;28;20041;-48
2021/12/24 08:30:29;;;;;;;22.17;7.25;;;;;;;7.84;100.00;100377.06;5012633;28;20038;-48
2021/12/24 08:33:00;;;;;;;20.27;6.75;;;;;;;7.85;100.00;100379.53;5012462;28;20046;-52
2021/12/24 08:35:28;;;;;;;19.48;6.93;;;;;;;7.85;100.00;100378.72;5012357;28;20054;-44
2021/12/24 08:37:56;;;;;;;22.00;6.93;;;;;;;7.85;100.00;100382.25;5010477;28;20038;-48
2021/12/24 08:40:24;;;;;;;19.55;6.22;;;;;;;7.90;100.00;100376.03;5012102;28;20046;-47
2021/12/24 08:42:52;;;;;;;19.42;6.28;;;;;;;7.92;100.00;100373.09;5012250;28;20046;-47
2021/12/24 08:45:19;;;;;;;19.60;6.55;;;;;;;7.94;100.00;100382.59;5012565;28;20050;-48
2021/12/24 08:47:47;;;;;;;23.08;7.00;;;;;;;7.92;100.00;100384.75;5010647;28;20045;-48
2021/12/24 08:50:15;;;;;;;23.00;7.30;;;;;;;7.94;100.00;100376.31;5011736;28;20052;-48
2021/12/24 08:52:44;;;;;;;18.63;6.85;;;;;;;7.91;100.00;100377.66;5010180;28;20042;-48
2021/12/24 08:55:14;;;;;;;24.77;8.30;;;;;;;7.90;100.00;100376.84;5012428;28;20057;-48
2021/12/24 08:57:42;;;;;;;23.67;7.78;;;;;;;7.92;100.00;100368.47;5012436;28;20034;-51
2021/12/24 09:00:12;;;;;;;25.02;8.07;;;;;;;7.93;100.00;100364.66;5015439;28;20128;-47
2021/12/24 09:02:40;;;;;;;21.85;7.43;;;;;;;7.94;100.00;100369.03;5015522;28;20515;-48
2021/12/24 09:05:09;;;;;;;21.80;7.82;;;;;;;7.92;100.00;100356.81;5015398;28;20058;-46
2021/12/24 09:07:37;;;;;;;20.60;7.28;;;;;;;7.94;100.00;100362.75;5014043;28;20440;-50
2021/12/24 09:10:05;;;;;;;23.38;7.75;;;;;;;7.92;100.00;100363.03;5015269;28;20185;-48
2021/12/24 09:12:32;;;;;;;20.67;7.13;;;;;;;7.94;100.00;100366.31;5015575;28;20057;-49
2021/12/24 09:15:00;;;;;;;25.90;8.13;;;;;;;7.93;100.00;100358.44;5014906;28;20496;-51
2021/12/24 09:17:29;;;;;;;20.33;7.30;;;;;;;7.94;100.00;100354.63;5013122;28;20353;-49
2021/12/24 09:19:57;;;;;;;22.02;7.28;;;;;;;7.96;100.00;100361.44;5015176;28;20042;-50
2021/12/24 09:22:31;;;;;;;22.08;7.53;;;;;;;7.94;100.00;100366.31;5015373;28;20476;-49
2021/12/24 09:24:59;;;;;;;21.42;7.07;;;;;;;7.94;100.00;100374.44;5015092;28;20054;-46
2021/12/24 09:27:27;;;;;;;20.35;7.18;;;;;;;7.95;100.00;100367.94;5012669;28;20048;-47
2021/12/24 09:29:55;;;;;;;25.08;6.90;;;;;;;7.96;100.00;100366.03;4995093;28;20042;-47
2021/12/24 09:32:23;;;;;;;23.85;7.70;;;;;;;7.96;100.00;100361.44;4995665;28;20568;-48
2021/12/24 09:34:51;;;;;;;23.45;7.35;;;;;;;8.04;100.00;100352.81;4995597;28;20069;-46
2021/12/24 09:37:18;;;;;;;17.45;7.18;;;;;;;8.03;100.00;100356.59;4998954;28;20041;-47
2021/12/24 09:39:46;;;;;;;19.85;7.40;;;;;;;8.00;100.00;100367.97;5014732;28;20052;-48
2021/12/24 09:42:14;;;;;;;23.27;7.30;;;;;;;8.04;100.00;100355.50;5014954;28;20065;-50
2021/12/24 09:44:41;;;;;;;20.15;7.65;;;;;;;8.00;100.00;100372.56;5014467;28;20046;-48
2021/12/24 09:47:09;;;;;;;21.30;7.28;;;;;;;7.97;100.00;100360.34;4996007;28;20042;-51
2021/12/24 09:49:37;;;;;;;20.73;7.47;;;;;;;7.97;100.00;100359.53;4994837;28;20091;-49
2021/12/24 09:52:05;;;;;;;20.88;6.90;;;;;;;7.97;100.00;100360.34;4994928;28;20412;-49
2021/12/24 09:54:33;;;;;;;21.58;7.95;;;;;;;7.99;100.00;100358.19;4993759;28;20046;-48
2021/12/24 09:57:01;;;;;;;21.23;7.30;;;;;;;7.99;100.00;100352.78;4997598;28;20053;-49
2021/12/24 09:59:29;;;;;;;23.52;7.88;;;;;;;7.99;100.00;100350.06;4996799;28;20066;-47
2021/12/24 10:01:59;;;;;;;22.42;7.65;;;;;;;8.00;100.00;100346.25;4994870;28;20046;-47
2021/12/24 10:04:33;;;;;;;24.67;7.27;;;;;;;8.02;100.00;100346.81;4305351;28;10000784;-47
2021/12/24 10:07:07;;;;;;;20.05;6.78;;;;;;;8.04;100.00;100350.09;4996418;28;20042;-48
2021/12/24 10:09:37;;;;;;;22.13;7.40;;;;;;;8.04;100.00;100355.50;5003863;28;20046;-49
2021/12/24 10:12:17;;;;;;;19.95;7.38;;;;;;;8.09;100.00;100355.53;4992719;28;20480;-45
2021/12/24 10:14:58;;;;;;;22.73;7.75;;;;;;;8.08;100.00;100351.22;4992774;28;20042;-47
2021/12/24 10:17:30;;;;;;;19.92;7.10;;;;;;;8.08;100.00;100355.78;5000973;28;20456;-47
2021/12/24 10:20:02;;;;;;;21.40;7.30;;;;;;;8.10;100.00;100361.78;5012590;28;20050;-48
2021/12/24 10:22:50;;;;;;;21.02;7.35;;;;;;;8.09;100.00;100352.81;5008477;28;20050;-54
2021/12/24 10:25:25;;;;;;;22.30;8.25;;;;;;;8.08;100.00;100353.09;4992521;28;20152;-53
2021/12/24 10:27:52;;;;;;;23.98;8.27;;;;;;;8.09;100.00;100358.25;4999089;28;20053;-49
2021/12/24 10:30:32;;;;;;;18.63;7.72;;;;;;;8.10;100.00;100354.47;5010623;28;20080;-48
2021/12/24 10:33:09;;;;;;;22.10;8.20;;;;;;;8.16;100.00;100351.78;5012114;28;20049;-49
2021/12/24 10:35:38;;;;;;;21.75;7.63;;;;;;;8.23;100.00;100347.75;5012367;28;20042;-51
2021/12/24 10:38:19;;;;;;;25.08;7.78;;;;;;;8.26;100.00;100341.78;5009821;28;20056;-52
2021/12/24 10:41:01;;;;;;;21.40;8.15;;;;;;;8.25;100.00;100344.75;5012283;28;20137;-49
2021/12/24 10:43:33;;;;;;;24.77;8.52;;;;;;;8.27;100.00;100348.03;5012003;28;20049;-48
2021/12/24 10:46:18;;;;;;;18.70;7.95;;;;;;;8.24;100.00;100343.13;5009996;28;20117;-48
2021/12/24 10:49:08;;;;;;;22.00;8.32;;;;;;;8.24;100.00;100337.72;5009403;28;20068;-49
2021/12/24 10:52:11;;;;;;;22.67;8.65;;;;;;;8.26;100.00;100335.56;4992182;28;20042;-50
2021/12/24 10:54:55;;;;;;;21.45;8.35;;;;;;;8.23;100.00;100342.31;4992159;28;20046;-51
2021/12/24 10:57:34;;;;;;;24.90;9.52;;;;;;;8.24;100.00;100340.41;4992429;28;20046;-46
2021/12/24 11:00:13;;;;;;;21.60;9.25;;;;;;;8.22;100.00;100340.66;5000713;28;20046;-48
2021/12/24 11:02:42;;;;;;;29.25;10.45;;;;;;;8.20;100.00;100337.44;5011575;28;20496;-47
2021/12/24 11:05:26;;;;;;;24.25;10.38;;;;;;;8.19;100.00;100341.22;5006127;28;20054;-52
2021/12/24 11:07:54;;;;;;;23.05;8.52;;;;;;;8.19;100.00;100338.50;4992134;28;20054;-50
2021/12/24 11:10:25;;;;;;;32.47;9.85;;;;;;;8.20;100.00;100336.59;5009698;28;20050;-50
2021/12/24 11:12:58;;;;;;;27.80;9.85;;;;;;;8.20;100.00;100344.72;5011231;28;20431;-52
2021/12/24 11:15:39;;;;;;;23.45;8.88;;;;;;;8.22;100.00;100343.38;5011167;28;20519;-51
2021/12/24 11:18:08;;;;;;;27.88;10.95;;;;;;;8.23;100.00;100346.94;5011196;28;20080;-50
2021/12/24 11:20:36;;;;;;;23.73;9.43;;;;;;;8.22;100.00;100346.09;5009266;28;20056;-47
2021/12/24 11:23:09;;;;;;;23.00;9.50;;;;;;;8.22;100.00;100343.38;5011547;28;20053;-50
2021/12/24 11:25:40;;;;;;;21.13;8.82;;;;;;;8.25;100.00;100350.19;5000107;28;20050;-51
2021/12/24 11:28:08;;;;;;;29.38;9.55;;;;;;;8.29;100.00;100346.69;4992225;28;20041;-48
2021/12/24 11:30:39;;;;;;;25.80;9.65;;;;;;;8.27;100.00;100346.16;4990678;28;20137;-51
2021/12/24 11:33:07;;;;;;;23.55;8.80;;;;;;;8.28;100.00;100344.25;4991743;28;20124;-50
2021/12/24 11:35:35;;;;;;;25.45;9.80;;;;;;;8.26;100.00;100340.97;4991480;28;20042;-53
2021/12/24 11:38:02;;;;;;;25.40;9.80;;;;;;;8.28;100.00;100339.63;4991543;28;20047;-49
2021/12/24 11:40:30;;;;;;;21.73;8.27;;;;;;;8.30;100.00;100342.09;4992513;28;20053;-50
2021/12/24 11:43:04;;;;;;;22.05;8.40;;;;;;;8.30;100.00;100347.53;4991586;28;20142;-53
2021/12/24 11:45:33;;;;;;;25.40;9.20;;;;;;;8.31;100.00;100332.84;5003075;28;20042;-50
2021/12/24 11:48:02;;;;;;;26.42;9.48;;;;;;;8.32;100.00;100334.47;5009635;28;20042;-50
2021/12/24 11:50:31;;;;;;;23.33;9.48;;;;;;;8.33;100.00;100330.69;5010894;28;20053;-47
2021/12/24 11:53:00;;;;;;;17.65;7.93;;;;;;;8.36;100.00;100324.72;4995637;28;20046;-48
2021/12/24 11:55:37;;;;;;;21.83;9.60;;;;;;;8.36;100.00;100324.72;4989998;28;20043;-48
2021/12/24 11:58:06;;;;;;;;;;;;;;;8.39;100.00;100318.75;4995903;28;20437;-50
2021/12/24 12:00:40;;;;;;;22.05;9.68;;;;;;;8.38;100.00;100317.13;5010527;28;19927;-48
2021/12/24 12:03:10;;;;;;;27.60;10.07;;;;;;;8.41;100.00;100313.91;5010834;28;20108;-46
2021/12/24 12:05:41;;;;;;;24.50;10.02;;;;;;;8.40;100.00;100315.00;5010633;28;20127;-50
2021/12/24 12:08:27;;;;;;;23.15;9.90;;;;;;;8.42;100.00;100317.44;5004417;28;20412;-47
2021/12/24 12:10:54;;;;;;;25.08;10.13;;;;;;;8.42;100.00;100314.72;4991388;28;20057;-50
2021/12/24 12:14:04;;;;;;;24.60;10.15;;;;;;;8.42;100.00;100312.84;4991493;28;20493;-51
2021/12/24 12:16:50;;;;;;;26.48;10.00;;;;;;;8.49;100.00;100313.41;5010374;28;20052;-49
2021/12/24 12:19:28;;;;;;;29.58;10.63;;;;;;;8.48;100.00;100314.47;5011393;28;20053;-53
2021/12/24 12:24:59;;;;;;;26.85;10.48;;;;;;;8.51;100.00;100313.13;5010222;28;20141;-48
2021/12/24 12:27:41;;;;;;;25.58;10.27;;;;;;;8.50;100.00;100315.03;5011081;28;20049;-49
2021/12/24 12:30:25;;;;;;;24.20;10.07;;;;;;;8.50;100.00;100312.31;5010087;28;20389;-48
2021/12/24 12:33:12;;;;;;;23.55;10.38;;;;;;;8.50;100.00;100316.94;5012393;28;20057;-48
2021/12/24 12:35:50;;;;;;;19.75;8.85;;;;;;;8.52;100.00;100315.59;4997712;28;20054;-49
2021/12/24 12:38:34;;;;;;;24.50;9.90;;;;;;;8.50;100.00;100317.75;5014925;28;20038;-50
2021/12/24 12:41:22;;;;;;;25.00;10.15;;;;;;;8.49;100.00;100313.41;4997611;28;20085;-51
2021/12/24 12:43:51;;;;;;;23.83;9.98;;;;;;;8.49;100.00;100318.84;5013627;28;20096;-50
2021/12/24 12:46:34;;;;;;;23.27;10.55;;;;;;;8.49;100.00;100316.13;4997176;28;20074;-53
2021/12/24 12:49:06;;;;;;;26.35;10.65;;;;;;;8.51;100.00;100311.25;5014749;28;20542;-48
2021/12/24 12:51:54;;;;;;;25.27;10.75;;;;;;;8.51;100.00;100318.56;5007988;28;20049;-52
2021/12/24 12:54:34;;;;;;;24.13;10.57;;;;;;;8.51;100.00;100321.28;4996159;28;20488;-50
2021/12/24 12:57:16;;;;;;;23.67;10.75;;;;;;;8.51;100.00;100315.84;4996256;28;20043;-53
2021/12/24 13:00:19;;;;;;;26.67;11.43;;;;;;;8.52;100.00;100312.88;5012981;28;20459;-48
2021/12/24 13:05:37;;;;;;;28.00;10.98;;;;;;;8.55;100.00;100310.72;5015304;28;20053;-48
2021/12/24 13:08:22;;;;;;;29.73;10.93;;;;;;;8.58;100.00;100310.16;5014014;28;20037;-48
2021/12/24 13:11:03;;;;;;;24.63;9.43;;;;;;;8.57;100.00;100303.13;5015735;28;20064;-48